createdAt,value
2019-04-29T00:00:07.280Z,8.89
2019-04-29T00:01:01.314Z,8.89
2019-04-29T00:01:52.292Z,8.89
2019-04-29T00:02:42.354Z,8.89
2019-04-29T00:03:33.421Z,8.87
2019-04-29T00:04:24.385Z,8.87
2019-04-29T00:05:14.727Z,8.87
2019-04-29T00:06:05.286Z,8.86
2019-04-29T00:06:55.076Z,8.85
2019-04-29T00:07:46.424Z,8.85
2019-04-29T00:08:37.816Z,8.85
2019-04-29T00:09:30.878Z,8.85
2019-04-29T00:10:19.548Z,8.84
2019-04-29T00:11:09.927Z,8.83
2019-04-29T00:12:00.348Z,8.84
2019-04-29T00:12:51.580Z,8.83
2019-04-29T00:13:42.409Z,8.84
2019-04-29T00:14:32.220Z,8.84
2019-04-29T00:15:40.969Z,8.84
2019-04-29T00:16:38.792Z,8.86
2019-04-29T00:17:34.968Z,8.86
2019-04-29T00:18:30.701Z,8.85
2019-04-29T00:19:45.050Z,8.85
2019-04-29T00:20:44.799Z,8.86
2019-04-29T00:21:35.216Z,8.86
2019-04-29T00:22:26.062Z,8.87
2019-04-29T00:23:17.586Z,8.87
2019-04-29T00:24:08.451Z,8.88
2019-04-29T00:24:58.462Z,8.88
2019-04-29T00:25:49.296Z,8.88
2019-04-29T00:26:39.611Z,8.88
2019-04-29T00:27:29.772Z,8.88
2019-04-29T00:28:20.308Z,8.90
2019-04-29T00:29:11.295Z,8.90
2019-04-29T00:30:01.484Z,8.92
2019-04-29T00:30:52.031Z,8.93
2019-04-29T00:31:42.343Z,8.93
2019-04-29T00:32:32.723Z,8.93
2019-04-29T00:33:22.892Z,8.94
2019-04-29T00:34:13.800Z,8.96
2019-04-29T00:35:04.347Z,8.96
2019-04-29T00:35:55.053Z,8.98
2019-04-29T00:36:54.203Z,8.98
2019-04-29T00:38:01.787Z,8.98
2019-04-29T00:39:11.932Z,8.99
2019-04-29T00:40:21.691Z,9.00
2019-04-29T00:41:34.374Z,9.00
2019-04-29T00:42:41.184Z,9.00
2019-04-29T00:43:44.638Z,9.01
2019-04-29T00:44:34.912Z,9.02
2019-04-29T00:45:25.308Z,9.02
2019-04-29T00:46:15.880Z,9.01
2019-04-29T00:47:06.607Z,9.03
2019-04-29T00:47:56.510Z,9.02
2019-04-29T00:48:47.164Z,9.03
2019-04-29T00:49:37.280Z,9.03
2019-04-29T00:50:27.949Z,9.03
2019-04-29T00:51:18.284Z,9.04
2019-04-29T00:52:09.642Z,9.05
2019-04-29T00:52:59.558Z,9.05
2019-04-29T00:53:49.900Z,9.04
2019-04-29T00:54:43.596Z,9.05
2019-04-29T00:55:34.584Z,9.06
2019-04-29T00:56:25.355Z,9.04
2019-04-29T00:57:16.358Z,9.04
2019-04-29T00:58:06.539Z,9.04
2019-04-29T00:58:56.938Z,9.02
2019-04-29T00:59:47.711Z,9.02
2019-04-29T01:00:39.151Z,9.02
2019-04-29T01:01:29.307Z,9.01
2019-04-29T01:02:20.068Z,9.00
2019-04-29T01:03:10.438Z,8.99
2019-04-29T01:04:00.918Z,8.98
2019-04-29T01:04:52.789Z,8.97
2019-04-29T01:05:42.783Z,8.96
2019-04-29T01:06:32.951Z,8.96
2019-04-29T01:07:23.577Z,8.98
2019-04-29T01:08:15.004Z,8.96
2019-04-29T01:09:06.454Z,8.97
2019-04-29T01:09:56.710Z,8.96
2019-04-29T01:10:47.180Z,8.96
2019-04-29T01:11:38.247Z,8.97
2019-04-29T01:12:28.544Z,8.95
2019-04-29T01:13:18.381Z,8.95
2019-04-29T01:14:08.945Z,8.94
2019-04-29T01:14:59.665Z,8.94
2019-04-29T01:15:49.940Z,8.92
2019-04-29T01:16:40.469Z,8.93
2019-04-29T01:17:31.387Z,8.93
2019-04-29T01:18:22.105Z,8.92
2019-04-29T01:19:12.044Z,8.92
2019-04-29T01:20:02.244Z,8.92
2019-04-29T01:20:52.898Z,8.91
2019-04-29T01:21:43.121Z,8.90
2019-04-29T01:22:33.946Z,8.89
2019-04-29T01:23:24.220Z,8.90
2019-04-29T01:24:14.074Z,8.89
2019-04-29T01:25:04.600Z,8.89
2019-04-29T01:25:57.497Z,8.89
2019-04-29T01:27:05.837Z,8.88
2019-04-29T01:28:00.913Z,8.88
2019-04-29T01:28:53.007Z,8.87
2019-04-29T01:29:43.967Z,8.85
2019-04-29T01:31:07.378Z,8.87
2019-04-29T01:31:57.992Z,8.86
2019-04-29T01:32:48.236Z,8.85
2019-04-29T01:33:38.624Z,8.86
2019-04-29T01:34:32.389Z,8.86
2019-04-29T01:35:22.280Z,8.85
2019-04-29T01:36:45.218Z,8.85
2019-04-29T01:37:42.861Z,8.85
2019-04-29T01:38:33.267Z,8.85
2019-04-29T01:39:25.782Z,8.85
2019-04-29T01:40:26.904Z,8.84
2019-04-29T01:41:18.118Z,8.84
2019-04-29T01:42:23.706Z,8.84
2019-04-29T01:43:14.380Z,8.85
2019-04-29T01:44:06.169Z,8.84
2019-04-29T01:44:56.224Z,8.85
2019-04-29T01:45:46.395Z,8.86
2019-04-29T01:46:37.103Z,8.84
2019-04-29T01:47:27.597Z,8.85
2019-04-29T01:48:17.872Z,8.85
2019-04-29T01:49:08.292Z,8.86
2019-04-29T01:49:58.495Z,8.87
2019-04-29T01:50:48.722Z,8.88
2019-04-29T01:51:39.740Z,8.88
2019-04-29T01:52:30.083Z,8.89
2019-04-29T01:53:20.441Z,8.89
2019-04-29T01:54:10.867Z,8.89
2019-04-29T01:55:01.426Z,8.90
2019-04-29T01:55:52.112Z,8.90
2019-04-29T01:56:42.484Z,8.92
2019-04-29T01:57:32.971Z,8.92
2019-04-29T01:58:23.160Z,8.92
2019-04-29T01:59:13.993Z,8.92
2019-04-29T02:00:05.565Z,8.93
2019-04-29T02:00:55.440Z,8.93
2019-04-29T02:01:46.043Z,8.94
2019-04-29T02:02:36.243Z,8.94
2019-04-29T02:03:27.064Z,8.96
2019-04-29T02:04:18.868Z,8.96
2019-04-29T02:05:08.991Z,8.98
2019-04-29T02:05:59.985Z,8.97
2019-04-29T02:06:50.746Z,8.98
2019-04-29T02:07:41.189Z,8.99
2019-04-29T02:08:31.581Z,8.98
2019-04-29T02:09:31.020Z,8.99
2019-04-29T02:10:25.764Z,9.00
2019-04-29T02:11:16.496Z,9.00
2019-04-29T02:12:06.755Z,9.00
2019-04-29T02:12:56.920Z,9.00
2019-04-29T02:13:48.153Z,9.00
2019-04-29T02:14:39.320Z,9.01
2019-04-29T02:15:30.479Z,9.00
2019-04-29T02:16:21.554Z,9.01
2019-04-29T02:17:11.640Z,9.01
2019-04-29T02:18:02.744Z,9.02
2019-04-29T02:18:52.969Z,9.03
2019-04-29T02:19:43.267Z,9.03
2019-04-29T02:20:34.417Z,9.02
2019-04-29T02:21:25.620Z,9.02
2019-04-29T02:22:47.272Z,9.01
2019-04-29T02:23:45.401Z,9.00
2019-04-29T02:24:38.608Z,8.99
2019-04-29T02:25:33.967Z,8.97
2019-04-29T02:26:24.035Z,8.96
2019-04-29T02:27:14.127Z,8.96
2019-04-29T02:28:04.175Z,8.94
2019-04-29T02:28:54.616Z,8.93
2019-04-29T02:29:45.125Z,8.93
2019-04-29T02:30:42.829Z,8.92
2019-04-29T02:31:39.436Z,8.92
2019-04-29T02:32:30.065Z,8.92
2019-04-29T02:33:20.313Z,8.93
2019-04-29T02:34:10.544Z,8.93
2019-04-29T02:35:01.935Z,8.93
2019-04-29T02:35:52.953Z,8.92
2019-04-29T02:36:43.149Z,8.90
2019-04-29T02:37:35.464Z,8.90
2019-04-29T02:38:42.226Z,8.90
2019-04-29T02:39:40.505Z,8.89
2019-04-29T02:40:36.005Z,8.89
2019-04-29T02:41:47.680Z,8.88
2019-04-29T02:42:47.583Z,8.88
2019-04-29T02:43:37.965Z,8.86
2019-04-29T02:44:28.475Z,8.84
2019-04-29T02:45:21.335Z,8.82
2019-04-29T02:46:11.749Z,8.82
2019-04-29T02:47:01.888Z,8.80
2019-04-29T02:47:52.362Z,8.80
2019-04-29T02:48:43.042Z,8.80
2019-04-29T02:49:33.347Z,8.79
2019-04-29T02:50:23.446Z,8.78
2019-04-29T02:51:14.510Z,8.77
2019-04-29T02:52:04.769Z,8.77
2019-04-29T02:52:55.113Z,8.77
2019-04-29T02:53:45.662Z,8.77
2019-04-29T02:54:37.302Z,8.76
2019-04-29T02:55:33.869Z,8.76
2019-04-29T02:56:23.789Z,8.77
2019-04-29T02:57:19.860Z,8.77
2019-04-29T02:58:28.245Z,8.77
2019-04-29T02:59:19.831Z,8.76
2019-04-29T03:00:26.057Z,8.75
2019-04-29T03:01:32.329Z,8.76
2019-04-29T03:02:37.133Z,8.75
2019-04-29T03:03:53.713Z,8.74
2019-04-29T03:05:02.058Z,8.74
2019-04-29T03:05:57.553Z,8.74
2019-04-29T03:06:47.941Z,8.74
2019-04-29T03:07:38.950Z,8.74
2019-04-29T03:08:29.350Z,8.75
2019-04-29T03:09:19.348Z,8.76
2019-04-29T03:10:09.687Z,8.76
2019-04-29T03:11:00.076Z,8.76
2019-04-29T03:11:50.307Z,8.77
2019-04-29T03:12:40.768Z,8.78
2019-04-29T03:13:32.794Z,8.78
2019-04-29T03:14:24.680Z,8.80
2019-04-29T03:15:23.050Z,8.80
2019-04-29T03:16:12.928Z,8.80
2019-04-29T03:17:03.762Z,8.80
2019-04-29T03:17:53.595Z,8.81
2019-04-29T03:18:46.985Z,8.82
2019-04-29T03:19:37.563Z,8.82
2019-04-29T03:20:53.576Z,8.82
2019-04-29T03:21:49.715Z,8.83
2019-04-29T03:22:40.186Z,8.83
2019-04-29T03:23:30.748Z,8.84
2019-04-29T03:24:21.483Z,8.83
2019-04-29T03:25:11.601Z,8.83
2019-04-29T03:26:02.647Z,8.83
2019-04-29T03:26:53.659Z,8.84
2019-04-29T03:27:44.415Z,8.82
2019-04-29T03:28:34.587Z,8.84
2019-04-29T03:29:25.353Z,8.83
2019-04-29T03:30:15.726Z,8.84
2019-04-29T03:31:05.923Z,8.82
2019-04-29T03:31:56.886Z,8.82
2019-04-29T03:32:47.491Z,8.82
2019-04-29T03:33:38.053Z,8.82
2019-04-29T03:34:29.033Z,8.84
2019-04-29T03:35:20.128Z,8.84
2019-04-29T03:36:10.608Z,8.83
2019-04-29T03:37:01.534Z,8.84
2019-04-29T03:37:52.349Z,8.85
2019-04-29T03:38:42.144Z,8.84
2019-04-29T03:39:32.555Z,8.83
2019-04-29T03:40:23.351Z,8.84
2019-04-29T03:41:13.569Z,8.83
2019-04-29T03:42:07.179Z,8.83
2019-04-29T03:42:54.500Z,8.84
2019-04-29T03:43:44.888Z,8.84
2019-04-29T03:44:35.517Z,8.84
2019-04-29T03:45:25.880Z,8.85
2019-04-29T03:46:16.839Z,8.85
2019-04-29T03:47:07.638Z,8.86
2019-04-29T03:47:58.219Z,8.87
2019-04-29T03:48:48.721Z,8.88
2019-04-29T03:49:38.851Z,8.86
2019-04-29T03:50:29.297Z,8.88
2019-04-29T03:51:20.095Z,8.88
2019-04-29T03:52:10.779Z,8.87
2019-04-29T03:53:00.632Z,8.86
2019-04-29T03:53:51.461Z,8.85
2019-04-29T03:54:42.128Z,8.86
2019-04-29T03:55:39.828Z,8.86
2019-04-29T03:56:22.521Z,8.85
2019-04-29T03:57:12.761Z,8.84
2019-04-29T03:58:03.574Z,8.84
2019-04-29T03:58:53.335Z,8.83
2019-04-29T03:59:43.721Z,8.84
2019-04-29T04:00:34.231Z,8.84
2019-04-29T04:01:44.513Z,8.83
2019-04-29T04:02:45.832Z,8.83
2019-04-29T04:03:41.249Z,8.84
2019-04-29T04:04:50.171Z,8.83
2019-04-29T04:06:06.120Z,8.83
2019-04-29T04:07:15.818Z,8.81
2019-04-29T04:08:26.257Z,8.81
2019-04-29T04:09:19.516Z,8.80
2019-04-29T04:10:09.336Z,8.78
2019-04-29T04:10:59.622Z,8.78
2019-04-29T04:11:51.107Z,8.77
2019-04-29T04:12:41.340Z,8.78
2019-04-29T04:13:32.228Z,8.76
2019-04-29T04:14:22.197Z,8.77
2019-04-29T04:15:12.409Z,8.75
2019-04-29T04:16:02.969Z,8.75
2019-04-29T04:17:28.435Z,8.75
2019-04-29T04:18:25.840Z,8.74
2019-04-29T04:19:16.152Z,8.72
2019-04-29T04:20:06.780Z,8.71
2019-04-29T04:20:57.427Z,8.70
2019-04-29T04:21:47.811Z,8.70
2019-04-29T04:22:48.318Z,8.69
2019-04-29T04:23:38.511Z,8.69
2019-04-29T04:24:28.659Z,8.68
2019-04-29T04:25:18.862Z,8.68
2019-04-29T04:26:09.230Z,8.68
2019-04-29T04:26:59.721Z,8.69
2019-04-29T04:27:50.336Z,8.68
2019-04-29T04:28:41.043Z,8.68
2019-04-29T04:29:31.690Z,8.68
2019-04-29T04:30:22.586Z,8.69
2019-04-29T04:31:13.776Z,8.68
2019-04-29T04:32:04.371Z,8.68
2019-04-29T04:32:54.850Z,8.67
2019-04-29T04:33:46.135Z,8.66
2019-04-29T04:34:36.456Z,8.67
2019-04-29T04:35:27.292Z,8.67
2019-04-29T04:36:17.528Z,8.65
2019-04-29T04:37:08.222Z,8.64
2019-04-29T04:37:58.462Z,8.64
2019-04-29T04:38:48.559Z,8.66
2019-04-29T04:39:38.875Z,8.64
2019-04-29T04:40:35.238Z,8.64
2019-04-29T04:41:26.018Z,8.64
2019-04-29T04:42:16.963Z,8.64
2019-04-29T04:43:07.412Z,8.64
2019-04-29T04:43:57.670Z,8.65
2019-04-29T04:44:48.760Z,8.64
2019-04-29T04:45:39.733Z,8.65
2019-04-29T04:46:30.097Z,8.65
2019-04-29T04:47:20.383Z,8.65
2019-04-29T04:48:10.470Z,8.65
2019-04-29T04:49:00.773Z,8.66
2019-04-29T04:49:51.432Z,8.66
2019-04-29T04:50:41.686Z,8.65
2019-04-29T04:51:32.488Z,8.64
2019-04-29T04:52:22.768Z,8.63
2019-04-29T04:53:13.627Z,8.63
2019-04-29T04:54:03.915Z,8.61
2019-04-29T04:54:54.825Z,8.60
2019-04-29T04:55:45.405Z,8.59
2019-04-29T04:56:36.256Z,8.59
2019-04-29T04:57:26.412Z,8.58
2019-04-29T04:58:17.934Z,8.57
2019-04-29T04:59:08.269Z,8.56
2019-04-29T04:59:58.525Z,8.57
2019-04-29T05:00:49.545Z,8.56
2019-04-29T05:01:40.230Z,8.56
2019-04-29T05:02:30.392Z,8.55
2019-04-29T05:03:21.690Z,8.55
2019-04-29T05:04:12.247Z,8.55
2019-04-29T05:05:03.006Z,8.53
2019-04-29T05:05:54.047Z,8.53
2019-04-29T05:06:44.324Z,8.53
2019-04-29T05:07:35.027Z,8.53
2019-04-29T05:08:24.929Z,8.54
2019-04-29T05:09:15.463Z,8.53
2019-04-29T05:10:06.702Z,8.53
2019-04-29T05:10:57.218Z,8.54
2019-04-29T05:11:48.328Z,8.53
2019-04-29T05:12:39.411Z,8.52
2019-04-29T05:13:30.533Z,8.53
2019-04-29T05:14:20.952Z,8.52
2019-04-29T05:15:11.195Z,8.52
2019-04-29T05:16:01.963Z,8.51
2019-04-29T05:16:52.324Z,8.50
2019-04-29T05:17:42.362Z,8.50
2019-04-29T05:18:33.207Z,8.50
2019-04-29T05:19:24.038Z,8.49
2019-04-29T05:20:14.723Z,8.49
2019-04-29T05:21:05.604Z,8.48
2019-04-29T05:21:56.529Z,8.48
2019-04-29T05:22:58.666Z,8.48
2019-04-29T05:23:48.844Z,8.48
2019-04-29T05:24:39.503Z,8.45
2019-04-29T05:25:31.316Z,8.43
2019-04-29T05:26:21.593Z,8.42
2019-04-29T05:27:13.396Z,8.41
2019-04-29T05:28:04.172Z,8.39
2019-04-29T05:28:54.625Z,8.38
2019-04-29T05:29:44.824Z,8.37
2019-04-29T05:30:36.131Z,8.37
2019-04-29T05:31:26.049Z,8.35
2019-04-29T05:32:16.342Z,8.33
2019-04-29T05:33:06.962Z,8.32
2019-04-29T05:33:57.625Z,8.31
2019-04-29T05:34:48.511Z,8.30
2019-04-29T05:35:56.842Z,8.28
2019-04-29T05:36:51.488Z,8.27
2019-04-29T05:37:52.795Z,8.26
2019-04-29T05:38:55.927Z,8.25
2019-04-29T05:39:46.439Z,8.24
2019-04-29T05:40:39.788Z,8.24
2019-04-29T05:41:34.338Z,8.22
2019-04-29T05:42:20.773Z,8.23
2019-04-29T05:43:11.446Z,8.23
2019-04-29T05:44:30.854Z,8.23
2019-04-29T05:45:31.974Z,8.23
2019-04-29T05:46:51.168Z,8.23
2019-04-29T05:47:45.337Z,8.23
2019-04-29T05:48:35.966Z,8.23
2019-04-29T05:49:30.927Z,8.22
2019-04-29T05:50:33.789Z,8.23
2019-04-29T05:51:42.677Z,8.22
2019-04-29T05:52:40.890Z,8.22
2019-04-29T05:53:47.869Z,8.22
2019-04-29T05:54:35.144Z,8.21
2019-04-29T05:55:25.828Z,8.22
2019-04-29T05:56:16.091Z,8.22
2019-04-29T05:57:06.273Z,8.21
2019-04-29T05:58:10.547Z,8.22
2019-04-29T05:59:00.650Z,8.22
2019-04-29T05:59:51.530Z,8.22
2019-04-29T06:00:44.475Z,8.23
2019-04-29T06:01:34.813Z,8.22
2019-04-29T06:02:33.411Z,8.22
2019-04-29T06:03:15.903Z,8.22
2019-04-29T06:04:06.617Z,8.24
2019-04-29T06:04:57.639Z,8.24
2019-04-29T06:05:48.658Z,8.24
2019-04-29T06:06:38.964Z,8.26
2019-04-29T06:07:29.721Z,8.27
2019-04-29T06:08:20.528Z,8.29
2019-04-29T06:09:16.944Z,8.31
2019-04-29T06:10:01.407Z,8.32
2019-04-29T06:10:53.304Z,8.34
2019-04-29T06:11:45.490Z,8.35
2019-04-29T06:12:36.433Z,8.36
2019-04-29T06:13:27.627Z,8.36
2019-04-29T06:14:22.065Z,8.37
2019-04-29T06:15:11.263Z,8.37
2019-04-29T06:16:01.131Z,8.39
2019-04-29T06:16:52.952Z,8.39
2019-04-29T06:17:44.707Z,8.39
2019-04-29T06:18:33.746Z,8.39
2019-04-29T06:19:23.997Z,8.40
2019-04-29T06:20:17.993Z,8.41
2019-04-29T06:21:09.341Z,8.41
2019-04-29T06:21:55.395Z,8.43
2019-04-29T06:22:46.343Z,8.43
2019-04-29T06:23:37.351Z,8.45
2019-04-29T06:24:28.004Z,8.46
2019-04-29T06:25:19.204Z,8.48
2019-04-29T06:26:10.225Z,8.49
2019-04-29T06:27:01.799Z,8.49
2019-04-29T06:27:52.414Z,8.51
2019-04-29T06:28:43.123Z,8.51
2019-04-29T06:29:33.956Z,8.54
2019-04-29T06:30:24.947Z,8.56
2019-04-29T06:31:15.577Z,8.56
2019-04-29T06:32:05.775Z,8.57
2019-04-29T06:32:56.661Z,8.60
2019-04-29T06:33:47.341Z,8.62
2019-04-29T06:34:40.192Z,8.64
2019-04-29T06:35:29.773Z,8.65
2019-04-29T06:36:20.222Z,8.67
2019-04-29T06:37:11.307Z,8.69
2019-04-29T06:38:01.812Z,8.72
2019-04-29T06:38:51.987Z,8.73
2019-04-29T06:39:42.903Z,8.74
2019-04-29T06:40:35.497Z,8.74
2019-04-29T06:41:24.482Z,8.77
2019-04-29T06:42:15.568Z,8.77
2019-04-29T06:43:05.757Z,8.78
2019-04-29T06:43:56.429Z,8.78
2019-04-29T06:44:49.013Z,8.78
2019-04-29T06:45:38.331Z,8.78
2019-04-29T06:46:28.250Z,8.78
2019-04-29T06:47:18.610Z,8.78
2019-04-29T06:48:09.967Z,8.79
2019-04-29T06:49:10.135Z,8.81
2019-04-29T06:49:52.189Z,8.81
2019-04-29T06:50:43.262Z,8.83
2019-04-29T06:51:34.356Z,8.83
2019-04-29T06:52:25.514Z,8.83
2019-04-29T06:53:21.359Z,8.84
2019-04-29T06:54:06.922Z,8.84
2019-04-29T06:54:57.164Z,8.85
2019-04-29T06:55:47.723Z,8.84
2019-04-29T06:56:38.188Z,8.85
2019-04-29T06:57:28.804Z,8.85
2019-04-29T06:58:19.600Z,8.86
2019-04-29T06:59:12.063Z,8.87
2019-04-29T06:59:59.974Z,8.88
2019-04-29T07:00:51.254Z,8.88
2019-04-29T07:01:41.461Z,8.89
2019-04-29T07:02:31.964Z,8.91
2019-04-29T07:03:25.613Z,8.92
2019-04-29T07:04:13.226Z,8.93
2019-04-29T07:05:04.636Z,8.93
2019-04-29T07:05:55.078Z,8.94
2019-04-29T07:06:56.643Z,8.95
2019-04-29T07:07:36.833Z,8.95
2019-04-29T07:08:26.920Z,8.97
2019-04-29T07:09:17.522Z,8.98
2019-04-29T07:10:08.594Z,8.98
2019-04-29T07:11:01.121Z,9.00
2019-04-29T07:11:51.030Z,8.99
2019-04-29T07:12:42.797Z,8.98
2019-04-29T07:13:33.164Z,8.99
2019-04-29T07:14:24.207Z,8.98
2019-04-29T07:15:14.070Z,8.98
2019-04-29T07:16:04.630Z,8.97
2019-04-29T07:16:55.029Z,8.97
2019-04-29T07:17:45.719Z,8.99
2019-04-29T07:18:40.309Z,8.99
2019-04-29T07:19:26.594Z,8.98
2019-04-29T07:20:17.551Z,8.99
2019-04-29T07:21:11.999Z,9.01
2019-04-29T07:21:58.100Z,9.01
2019-04-29T07:22:49.008Z,9.03
2019-04-29T07:23:39.451Z,9.05
2019-04-29T07:24:30.220Z,9.06
2019-04-29T07:25:24.644Z,9.07
2019-04-29T07:26:12.676Z,9.08
2019-04-29T07:27:04.494Z,9.10
2019-04-29T07:27:54.299Z,9.11
2019-04-29T07:28:48.704Z,9.11
2019-04-29T07:29:38.140Z,9.12
2019-04-29T07:30:29.160Z,9.11
2019-04-29T07:31:17.467Z,9.12
2019-04-29T07:32:09.325Z,9.13
2019-04-29T07:32:59.934Z,9.14
2019-04-29T07:33:53.662Z,9.15
2019-04-29T07:34:40.887Z,9.15
2019-04-29T07:35:31.499Z,9.16
2019-04-29T07:36:23.900Z,9.15
2019-04-29T07:37:13.004Z,9.15
2019-04-29T07:38:04.528Z,9.15
2019-04-29T07:38:56.558Z,9.15
2019-04-29T07:39:44.580Z,9.15
2019-04-29T07:40:38.799Z,9.13
2019-04-29T07:41:25.363Z,9.12
2019-04-29T07:42:15.945Z,9.12
2019-04-29T07:43:07.844Z,9.11
2019-04-29T07:43:57.360Z,9.10
2019-04-29T07:45:06.631Z,9.09
2019-04-29T07:46:22.549Z,9.09
2019-04-29T07:47:13.812Z,9.08
2019-04-29T07:48:06.285Z,9.07
2019-04-29T07:49:01.682Z,9.07
2019-04-29T07:49:50.925Z,9.08
2019-04-29T07:50:37.462Z,9.07
2019-04-29T07:51:28.802Z,9.09
2019-04-29T07:52:18.848Z,9.09
2019-04-29T07:53:08.989Z,9.12
2019-04-29T07:54:00.364Z,9.11
2019-04-29T07:54:56.087Z,9.13
2019-04-29T07:55:43.552Z,9.14
2019-04-29T07:56:37.899Z,9.16
2019-04-29T07:57:24.835Z,9.16
2019-04-29T07:58:16.315Z,9.17
2019-04-29T07:59:06.706Z,9.18
2019-04-29T07:59:57.622Z,9.18
2019-04-29T08:00:49.998Z,9.18
2019-04-29T08:01:38.980Z,9.18
2019-04-29T08:02:29.018Z,9.18
2019-04-29T08:03:20.107Z,9.18
2019-04-29T08:04:11.066Z,9.19
2019-04-29T08:05:01.399Z,9.21
2019-04-29T08:05:52.825Z,9.22
2019-04-29T08:06:44.896Z,9.23
2019-04-29T08:07:34.531Z,9.26
2019-04-29T08:08:25.147Z,9.29
2019-04-29T08:09:15.618Z,9.31
2019-04-29T08:10:22.522Z,9.34
2019-04-29T08:10:56.926Z,9.37
2019-04-29T08:11:47.186Z,9.39
2019-04-29T08:12:38.292Z,9.41
2019-04-29T08:13:29.575Z,9.43
2019-04-29T08:14:19.968Z,9.45
2019-04-29T08:15:10.177Z,9.47
2019-04-29T08:16:00.580Z,9.50
2019-04-29T08:16:50.789Z,9.51
2019-04-29T08:17:41.530Z,9.54
2019-04-29T08:18:32.272Z,9.56
2019-04-29T08:19:24.583Z,9.56
2019-04-29T08:20:12.913Z,9.59
2019-04-29T08:21:04.605Z,9.61
2019-04-29T08:21:55.200Z,9.62
2019-04-29T08:22:46.072Z,9.63
2019-04-29T08:23:41.227Z,9.64
2019-04-29T08:24:27.469Z,9.67
2019-04-29T08:25:21.815Z,9.67
2019-04-29T08:26:09.307Z,9.66
2019-04-29T08:26:59.401Z,9.67
2019-04-29T08:27:50.480Z,9.66
2019-04-29T08:28:40.522Z,9.68
2019-04-29T08:29:35.718Z,9.69
2019-04-29T08:30:23.521Z,9.67
2019-04-29T08:31:16.672Z,9.67
2019-04-29T08:32:05.584Z,9.67
2019-04-29T08:32:56.323Z,9.68
2019-04-29T08:33:48.553Z,9.68
2019-04-29T08:34:40.765Z,9.67
2019-04-29T08:35:28.133Z,9.66
2019-04-29T08:36:19.430Z,9.66
2019-04-29T08:37:10.143Z,9.65
2019-04-29T08:38:00.919Z,9.66
2019-04-29T08:38:51.048Z,9.66
2019-04-29T08:39:41.630Z,9.65
2019-04-29T08:40:34.242Z,9.65
2019-04-29T08:41:28.481Z,9.64
2019-04-29T08:42:14.347Z,9.64
2019-04-29T08:43:25.528Z,9.64
2019-04-29T08:44:35.566Z,9.62
2019-04-29T08:45:34.643Z,9.61
2019-04-29T08:46:27.592Z,9.59
2019-04-29T08:47:23.590Z,9.58
2019-04-29T08:48:12.772Z,9.57
2019-04-29T08:49:06.003Z,9.56
2019-04-29T08:49:53.677Z,9.55
2019-04-29T08:50:44.266Z,9.55
2019-04-29T08:51:34.754Z,9.53
2019-04-29T08:52:25.747Z,9.53
2019-04-29T08:53:16.699Z,9.52
2019-04-29T08:54:07.061Z,9.52
2019-04-29T08:54:57.347Z,9.50
2019-04-29T08:55:48.587Z,9.47
2019-04-29T08:56:42.547Z,9.46
2019-04-29T08:57:31.840Z,9.44
2019-04-29T08:58:20.211Z,9.44
2019-04-29T08:59:11.580Z,9.43
2019-04-29T09:00:02.005Z,9.42
2019-04-29T09:00:55.695Z,9.41
2019-04-29T09:01:44.694Z,9.41
2019-04-29T09:02:35.904Z,9.41
2019-04-29T09:03:39.608Z,9.39
2019-04-29T09:04:17.523Z,9.38
2019-04-29T09:05:11.318Z,9.38
2019-04-29T09:06:05.579Z,9.38
2019-04-29T09:06:49.740Z,9.38
2019-04-29T09:07:41.280Z,9.37
2019-04-29T09:08:32.821Z,9.37
2019-04-29T09:09:29.314Z,9.38
2019-04-29T09:10:12.053Z,9.39
2019-04-29T09:11:03.385Z,9.39
2019-04-29T09:11:54.006Z,9.41
2019-04-29T09:12:44.427Z,9.42
2019-04-29T09:13:34.599Z,9.43
2019-04-29T09:14:25.849Z,9.46
2019-04-29T09:15:16.077Z,9.49
2019-04-29T09:16:07.567Z,9.53
2019-04-29T09:16:58.065Z,9.56
2019-04-29T09:17:48.845Z,9.60
2019-04-29T09:18:39.672Z,9.65
2019-04-29T09:19:30.311Z,9.66
2019-04-29T09:20:21.487Z,9.69
2019-04-29T09:21:11.991Z,9.72
2019-04-29T09:22:03.593Z,9.74
2019-04-29T09:22:56.386Z,9.76
2019-04-29T09:23:47.524Z,9.79
2019-04-29T09:24:38.567Z,9.80
2019-04-29T09:25:42.835Z,9.83
2019-04-29T09:26:45.347Z,9.85
2019-04-29T09:27:40.780Z,9.86
2019-04-29T09:28:28.300Z,9.86
2019-04-29T09:29:32.442Z,9.86
2019-04-29T09:30:24.220Z,9.86
2019-04-29T09:31:14.428Z,9.87
2019-04-29T09:32:04.842Z,9.87
2019-04-29T09:32:55.450Z,9.86
2019-04-29T09:33:49.081Z,9.87
2019-04-29T09:34:37.248Z,9.88
2019-04-29T09:35:28.892Z,9.90
2019-04-29T09:36:19.084Z,9.91
2019-04-29T09:37:09.209Z,9.92
2019-04-29T09:37:59.708Z,9.93
2019-04-29T09:38:50.149Z,9.94
2019-04-29T09:39:43.455Z,9.96
2019-04-29T09:40:33.799Z,9.97
2019-04-29T09:41:35.059Z,9.99
2019-04-29T09:42:31.217Z,10.01
2019-04-29T09:43:32.772Z,10.03
2019-04-29T09:44:48.691Z,10.04
2019-04-29T09:45:47.749Z,10.05
2019-04-29T09:46:38.803Z,10.05
2019-04-29T09:47:29.041Z,10.05
2019-04-29T09:48:19.809Z,10.05
2019-04-29T09:49:10.287Z,10.06
2019-04-29T09:50:00.718Z,10.07
2019-04-29T09:50:51.071Z,10.08
2019-04-29T09:51:41.413Z,10.08
2019-04-29T09:52:31.948Z,10.10
2019-04-29T09:53:23.027Z,10.12
2019-04-29T09:54:14.561Z,10.13
2019-04-29T09:55:05.696Z,10.15
2019-04-29T09:55:54.894Z,10.17
2019-04-29T09:56:44.769Z,10.18
2019-04-29T09:57:35.380Z,10.21
2019-04-29T09:58:26.567Z,10.23
2019-04-29T09:59:28.950Z,10.25
2019-04-29T10:00:25.292Z,10.28
2019-04-29T10:01:33.070Z,10.31
2019-04-29T10:02:31.318Z,10.31
2019-04-29T10:03:29.872Z,10.34
2019-04-29T10:04:55.513Z,10.33
2019-04-29T10:05:45.433Z,10.34
2019-04-29T10:06:37.805Z,10.34
2019-04-29T10:07:28.585Z,10.35
2019-04-29T10:08:18.956Z,10.37
2019-04-29T10:09:09.386Z,10.38
2019-04-29T10:10:02.314Z,10.39
2019-04-29T10:10:52.128Z,10.40
2019-04-29T10:11:42.983Z,10.41
2019-04-29T10:12:33.215Z,10.42
2019-04-29T10:13:23.102Z,10.42
2019-04-29T10:14:13.707Z,10.43
2019-04-29T10:15:04.034Z,10.43
2019-04-29T10:16:16.917Z,10.44
2019-04-29T10:17:24.687Z,10.46
2019-04-29T10:18:25.153Z,10.46
2019-04-29T10:19:51.204Z,10.48
2019-04-29T10:20:53.824Z,10.48
2019-04-29T10:21:44.406Z,10.49
2019-04-29T10:22:35.287Z,10.49
2019-04-29T10:23:26.730Z,10.50
2019-04-29T10:24:18.601Z,10.51
2019-04-29T10:25:09.267Z,10.51
2019-04-29T10:25:59.329Z,10.51
2019-04-29T10:26:50.260Z,10.53
2019-04-29T10:27:40.750Z,10.53
2019-04-29T10:28:30.629Z,10.56
2019-04-29T10:29:21.646Z,10.57
2019-04-29T10:30:13.024Z,10.60
2019-04-29T10:31:05.035Z,10.59
2019-04-29T10:31:55.641Z,10.61
2019-04-29T10:32:46.279Z,10.61
2019-04-29T10:33:36.885Z,10.62
2019-04-29T10:34:31.556Z,10.63
2019-04-29T10:35:18.302Z,10.64
2019-04-29T10:36:09.221Z,10.64
2019-04-29T10:37:01.174Z,10.65
2019-04-29T10:37:51.344Z,10.66
2019-04-29T10:38:44.909Z,10.67
2019-04-29T10:39:55.731Z,10.68
2019-04-29T10:41:08.284Z,10.68
2019-04-29T10:41:59.750Z,10.71
2019-04-29T10:43:11.322Z,10.72
2019-04-29T10:44:29.806Z,10.73
2019-04-29T10:45:28.885Z,10.74
2019-04-29T10:46:37.755Z,10.75
2019-04-29T10:47:36.507Z,10.73
2019-04-29T10:48:30.821Z,10.73
2019-04-29T10:49:28.345Z,10.70
2019-04-29T10:50:24.096Z,10.71
2019-04-29T10:51:14.321Z,10.68
2019-04-29T10:52:05.992Z,10.68
2019-04-29T10:52:56.506Z,10.68
2019-04-29T10:53:51.122Z,10.65
2019-04-29T10:54:38.283Z,10.66
2019-04-29T10:55:30.121Z,10.67
2019-04-29T10:56:19.026Z,10.68
2019-04-29T10:57:14.344Z,10.68
2019-04-29T10:58:01.104Z,10.67
2019-04-29T10:58:52.222Z,10.68
2019-04-29T10:59:45.044Z,10.68
2019-04-29T11:01:34.670Z,10.66
2019-04-29T11:02:36.253Z,10.68
2019-04-29T11:03:26.427Z,10.68
2019-04-29T11:04:16.807Z,10.68
2019-04-29T11:05:59.935Z,10.67
2019-04-29T11:06:37.483Z,10.68
2019-04-29T11:07:31.742Z,10.69
2019-04-29T11:08:43.186Z,10.68
2019-04-29T11:09:50.751Z,10.68
2019-04-29T11:10:36.879Z,10.68
2019-04-29T11:11:28.353Z,10.70
2019-04-29T11:12:19.223Z,10.70
2019-04-29T11:13:10.890Z,10.71
2019-04-29T11:14:01.899Z,10.71
2019-04-29T11:14:52.157Z,10.73
2019-04-29T11:15:44.919Z,10.73
2019-04-29T11:16:45.911Z,10.75
2019-04-29T11:17:24.732Z,10.74
2019-04-29T11:18:18.071Z,10.75
2019-04-29T11:19:05.712Z,10.74
2019-04-29T11:19:55.952Z,10.74
2019-04-29T11:20:48.851Z,10.75
2019-04-29T11:21:38.859Z,10.76
2019-04-29T11:22:34.018Z,10.76
2019-04-29T11:23:28.358Z,10.77
2019-04-29T11:24:33.723Z,10.78
2019-04-29T11:25:38.908Z,10.82
2019-04-29T11:26:34.970Z,10.84
2019-04-29T11:27:29.042Z,10.86
2019-04-29T11:28:19.863Z,10.89
2019-04-29T11:29:11.520Z,10.92
2019-04-29T11:30:04.838Z,10.93
2019-04-29T11:30:53.619Z,10.96
2019-04-29T11:31:44.342Z,10.98
2019-04-29T11:32:39.501Z,11.02
2019-04-29T11:33:39.569Z,11.05
2019-04-29T11:34:39.497Z,11.08
2019-04-29T11:35:43.185Z,11.12
2019-04-29T11:36:34.987Z,11.17
2019-04-29T11:37:27.145Z,11.21
2019-04-29T11:38:18.021Z,11.23
2019-04-29T11:39:13.598Z,11.24
2019-04-29T11:39:59.467Z,11.26